sensor_id;sensor_type;location;lat;lon;timestamp;temperature;humidity
58153;DHT22;43967;51.634;5.566;2023-09-07T00:00:59;24.90;69.20
58153;DHT22;43967;51.634;5.566;2023-09-07T00:06:20;24.80;69.10
58153;DHT22;43967;51.634;5.566;2023-09-07T00:11:41;24.80;69.10
58153;DHT22;43967;51.634;5.566;2023-09-07T00:17:03;24.80;69.20
58153;DHT22;43967;51.634;5.566;2023-09-07T00:22:24;24.80;69.20
58153;DHT22;43967;51.634;5.566;2023-09-07T00:27:46;24.80;69.20
58153;DHT22;43967;51.634;5.566;2023-09-07T00:33:07;24.80;69.20
58153;DHT22;43967;51.634;5.566;2023-09-07T00:38:29;24.80;69.20
58153;DHT22;43967;51.634;5.566;2023-09-07T00:43:50;24.80;69.20
58153;DHT22;43967;51.634;5.566;2023-09-07T00:49:12;24.80;69.10
58153;DHT22;43967;51.634;5.566;2023-09-07T00:54:34;24.70;69.10
58153;DHT22;43967;51.634;5.566;2023-09-07T00:59:55;24.70;69.10
58153;DHT22;43967;51.634;5.566;2023-09-07T01:05:16;24.70;69.10
58153;DHT22;43967;51.634;5.566;2023-09-07T01:10:38;24.70;69.10
58153;DHT22;43967;51.634;5.566;2023-09-07T01:15:59;24.70;69.10
58153;DHT22;43967;51.634;5.566;2023-09-07T01:21:22;24.70;69.10
58153;DHT22;43967;51.634;5.566;2023-09-07T01:26:43;24.70;69.10
58153;DHT22;43967;51.634;5.566;2023-09-07T01:32:05;24.70;69.10
58153;DHT22;43967;51.634;5.566;2023-09-07T01:37:27;24.60;69.00
58153;DHT22;43967;51.634;5.566;2023-09-07T01:42:48;24.60;69.10
58153;DHT22;43967;51.634;5.566;2023-09-07T01:48:13;24.60;69.10
58153;DHT22;43967;51.634;5.566;2023-09-07T01:53:35;24.60;69.10
58153;DHT22;43967;51.634;5.566;2023-09-07T01:58:56;24.60;69.00
58153;DHT22;43967;51.634;5.566;2023-09-07T02:04:17;24.60;69.00
58153;DHT22;43967;51.634;5.566;2023-09-07T02:09:39;24.60;69.00
58153;DHT22;43967;51.634;5.566;2023-09-07T02:15:02;24.60;69.00
58153;DHT22;43967;51.634;5.566;2023-09-07T02:20:24;24.60;69.00
58153;DHT22;43967;51.634;5.566;2023-09-07T02:25:45;24.60;69.00
58153;DHT22;43967;51.634;5.566;2023-09-07T02:31:07;24.50;69.00
58153;DHT22;43967;51.634;5.566;2023-09-07T02:36:28;24.50;69.00
58153;DHT22;43967;51.634;5.566;2023-09-07T02:41:49;24.50;69.00
58153;DHT22;43967;51.634;5.566;2023-09-07T02:47:10;24.50;69.00
58153;DHT22;43967;51.634;5.566;2023-09-07T02:52:32;24.50;69.00
58153;DHT22;43967;51.634;5.566;2023-09-07T02:57:53;24.50;69.00
58153;DHT22;43967;51.634;5.566;2023-09-07T03:03:14;24.50;69.00
58153;DHT22;43967;51.634;5.566;2023-09-07T03:08:35;24.50;69.00
58153;DHT22;43967;51.634;5.566;2023-09-07T03:13:57;24.50;69.00
58153;DHT22;43967;51.634;5.566;2023-09-07T03:19:18;24.50;69.00
58153;DHT22;43967;51.634;5.566;2023-09-07T03:24:40;24.50;69.00
58153;DHT22;43967;51.634;5.566;2023-09-07T03:30:01;24.40;69.00
58153;DHT22;43967;51.634;5.566;2023-09-07T03:35:23;24.40;69.00
58153;DHT22;43967;51.634;5.566;2023-09-07T03:40:44;24.40;69.00
58153;DHT22;43967;51.634;5.566;2023-09-07T03:46:05;24.40;69.60
58153;DHT22;43967;51.634;5.566;2023-09-07T03:51:27;24.40;68.90
58153;DHT22;43967;51.634;5.566;2023-09-07T03:56:48;24.40;69.00
58153;DHT22;43967;51.634;5.566;2023-09-07T04:02:09;24.40;69.00
58153;DHT22;43967;51.634;5.566;2023-09-07T04:07:31;24.40;69.00
58153;DHT22;43967;51.634;5.566;2023-09-07T04:12:52;24.40;69.00
58153;DHT22;43967;51.634;5.566;2023-09-07T04:18:14;24.30;69.00
58153;DHT22;43967;51.634;5.566;2023-09-07T04:23:35;24.30;68.90
58153;DHT22;43967;51.634;5.566;2023-09-07T04:28:57;24.30;68.90
58153;DHT22;43967;51.634;5.566;2023-09-07T04:34:18;24.30;69.00
58153;DHT22;43967;51.634;5.566;2023-09-07T04:39:39;24.30;69.00
58153;DHT22;43967;51.634;5.566;2023-09-07T04:45:01;24.30;68.90
58153;DHT22;43967;51.634;5.566;2023-09-07T04:50:22;24.30;69.00
58153;DHT22;43967;51.634;5.566;2023-09-07T04:55:44;24.20;69.00
58153;DHT22;43967;51.634;5.566;2023-09-07T05:01:07;24.20;68.80
58153;DHT22;43967;51.634;5.566;2023-09-07T05:06:29;24.20;68.50
58153;DHT22;43967;51.634;5.566;2023-09-07T05:11:50;24.20;68.20
58153;DHT22;43967;51.634;5.566;2023-09-07T05:17:11;24.20;68.20
58153;DHT22;43967;51.634;5.566;2023-09-07T05:22:33;24.20;68.00
58153;DHT22;43967;51.634;5.566;2023-09-07T05:27:54;24.10;68.00
58153;DHT22;43967;51.634;5.566;2023-09-07T05:33:16;24.10;67.90
58153;DHT22;43967;51.634;5.566;2023-09-07T05:38:38;24.10;67.90
58153;DHT22;43967;51.634;5.566;2023-09-07T05:43:59;24.10;67.80
58153;DHT22;43967;51.634;5.566;2023-09-07T05:49:20;24.10;67.90
58153;DHT22;43967;51.634;5.566;2023-09-07T05:54:41;24.10;67.80
58153;DHT22;43967;51.634;5.566;2023-09-07T06:00:03;24.10;67.80
58153;DHT22;43967;51.634;5.566;2023-09-07T06:05:24;24.10;67.70
58153;DHT22;43967;51.634;5.566;2023-09-07T06:10:46;24.10;67.70
58153;DHT22;43967;51.634;5.566;2023-09-07T06:16:07;24.10;67.70
58153;DHT22;43967;51.634;5.566;2023-09-07T06:21:28;24.10;67.70
58153;DHT22;43967;51.634;5.566;2023-09-07T06:26:50;24.10;67.70
58153;DHT22;43967;51.634;5.566;2023-09-07T06:32:11;24.10;67.90
58153;DHT22;43967;51.634;5.566;2023-09-07T06:37:32;24.10;67.90
58153;DHT22;43967;51.634;5.566;2023-09-07T06:42:53;24.20;68.00
58153;DHT22;43967;51.634;5.566;2023-09-07T06:48:15;24.30;67.50
58153;DHT22;43967;51.634;5.566;2023-09-07T06:53:36;24.50;67.10
58153;DHT22;43967;51.634;5.566;2023-09-07T06:58:57;24.70;66.80
58153;DHT22;43967;51.634;5.566;2023-09-07T07:04:18;24.90;66.80
58153;DHT22;43967;51.634;5.566;2023-09-07T07:09:40;24.90;66.50
58153;DHT22;43967;51.634;5.566;2023-09-07T07:15:01;25.00;66.40
58153;DHT22;43967;51.634;5.566;2023-09-07T07:20:23;25.10;66.20
58153;DHT22;43967;51.634;5.566;2023-09-07T07:25:44;25.20;66.00
58153;DHT22;43967;51.634;5.566;2023-09-07T07:31:09;25.30;65.90
58153;DHT22;43967;51.634;5.566;2023-09-07T07:36:31;25.40;65.90
58153;DHT22;43967;51.634;5.566;2023-09-07T07:41:52;25.50;65.80
58153;DHT22;43967;51.634;5.566;2023-09-07T07:47:13;25.70;65.50
58153;DHT22;43967;51.634;5.566;2023-09-07T07:52:34;28.40;59.00
58153;DHT22;43967;51.634;5.566;2023-09-07T07:57:56;31.60;51.50
58153;DHT22;43967;51.634;5.566;2023-09-07T08:03:17;32.90;48.30
58153;DHT22;43967;51.634;5.566;2023-09-07T08:08:39;30.30;52.80
58153;DHT22;43967;51.634;5.566;2023-09-07T08:14:00;28.30;57.60
58153;DHT22;43967;51.634;5.566;2023-09-07T08:19:21;27.30;60.20
58153;DHT22;43967;51.634;5.566;2023-09-07T08:24:43;26.70;61.70
58153;DHT22;43967;51.634;5.566;2023-09-07T08:30:04;26.40;63.30
58153;DHT22;43967;51.634;5.566;2023-09-07T08:35:26;26.20;63.20
58153;DHT22;43967;51.634;5.566;2023-09-07T08:40:47;26.10;63.70
58153;DHT22;43967;51.634;5.566;2023-09-07T08:46:14;26.00;64.00
58153;DHT22;43967;51.634;5.566;2023-09-07T08:51:36;25.80;64.20
58153;DHT22;43967;51.634;5.566;2023-09-07T08:56:57;25.80;64.60
58153;DHT22;43967;51.634;5.566;2023-09-07T09:02:19;25.60;64.70
58153;DHT22;43967;51.634;5.566;2023-09-07T09:07:40;25.60;65.00
58153;DHT22;43967;51.634;5.566;2023-09-07T09:13:02;25.60;65.20
58153;DHT22;43967;51.634;5.566;2023-09-07T09:18:23;25.50;65.40
58153;DHT22;43967;51.634;5.566;2023-09-07T09:23:44;25.40;65.60
58153;DHT22;43967;51.634;5.566;2023-09-07T09:29:05;25.40;65.70
58153;DHT22;43967;51.634;5.566;2023-09-07T09:34:31;25.40;65.90
58153;DHT22;43967;51.634;5.566;2023-09-07T09:39:54;25.30;66.00
58153;DHT22;43967;51.634;5.566;2023-09-07T09:45:16;25.30;66.10
58153;DHT22;43967;51.634;5.566;2023-09-07T09:50:39;25.30;66.20
58153;DHT22;43967;51.634;5.566;2023-09-07T09:56:01;25.20;66.20
58153;DHT22;43967;51.634;5.566;2023-09-07T10:01:22;25.20;66.40
58153;DHT22;43967;51.634;5.566;2023-09-07T10:06:53;25.20;66.50
58153;DHT22;43967;51.634;5.566;2023-09-07T10:12:15;25.20;66.50
58153;DHT22;43967;51.634;5.566;2023-09-07T10:17:36;25.20;66.60
58153;DHT22;43967;51.634;5.566;2023-09-07T10:23:04;25.20;66.60
58153;DHT22;43967;51.634;5.566;2023-09-07T10:28:25;25.10;66.70
58153;DHT22;43967;51.634;5.566;2023-09-07T10:33:47;25.20;66.80
58153;DHT22;43967;51.634;5.566;2023-09-07T10:39:08;25.20;66.90
58153;DHT22;43967;51.634;5.566;2023-09-07T10:44:30;25.20;66.90
58153;DHT22;43967;51.634;5.566;2023-09-07T10:49:51;25.20;67.00
58153;DHT22;43967;51.634;5.566;2023-09-07T10:55:12;25.20;67.00
58153;DHT22;43967;51.634;5.566;2023-09-07T11:00:34;25.20;67.10
58153;DHT22;43967;51.634;5.566;2023-09-07T11:06:04;25.20;67.10
58153;DHT22;43967;51.634;5.566;2023-09-07T11:11:27;25.20;67.20
58153;DHT22;43967;51.634;5.566;2023-09-07T11:16:48;25.20;67.20
58153;DHT22;43967;51.634;5.566;2023-09-07T11:22:10;25.20;67.20
58153;DHT22;43967;51.634;5.566;2023-09-07T11:27:32;25.20;67.20
58153;DHT22;43967;51.634;5.566;2023-09-07T11:33:09;25.20;67.20
58153;DHT22;43967;51.634;5.566;2023-09-07T11:38:36;25.20;67.30
58153;DHT22;43967;51.634;5.566;2023-09-07T11:43:57;25.20;67.30
58153;DHT22;43967;51.634;5.566;2023-09-07T11:49:18;25.20;67.30
58153;DHT22;43967;51.634;5.566;2023-09-07T11:54:39;25.20;67.40
58153;DHT22;43967;51.634;5.566;2023-09-07T12:00:01;25.20;67.40
58153;DHT22;43967;51.634;5.566;2023-09-07T12:05:23;25.20;67.40
58153;DHT22;43967;51.634;5.566;2023-09-07T12:10:44;25.20;67.40
58153;DHT22;43967;51.634;5.566;2023-09-07T12:16:05;25.20;67.40
58153;DHT22;43967;51.634;5.566;2023-09-07T12:21:26;25.20;67.50
58153;DHT22;43967;51.634;5.566;2023-09-07T12:26:48;25.20;67.50
58153;DHT22;43967;51.634;5.566;2023-09-07T12:32:09;25.20;67.50
58153;DHT22;43967;51.634;5.566;2023-09-07T12:37:30;25.20;67.50
58153;DHT22;43967;51.634;5.566;2023-09-07T12:42:51;25.20;67.50
58153;DHT22;43967;51.634;5.566;2023-09-07T12:48:13;25.20;67.50
58153;DHT22;43967;51.634;5.566;2023-09-07T12:53:34;25.20;67.50
58153;DHT22;43967;51.634;5.566;2023-09-07T12:58:55;25.30;67.60
58153;DHT22;43967;51.634;5.566;2023-09-07T13:04:16;25.30;67.60
58153;DHT22;43967;51.634;5.566;2023-09-07T13:09:38;25.30;67.60
58153;DHT22;43967;51.634;5.566;2023-09-07T13:14:59;25.30;67.60
58153;DHT22;43967;51.634;5.566;2023-09-07T13:20:20;25.30;67.60
58153;DHT22;43967;51.634;5.566;2023-09-07T13:25:42;25.30;67.70
58153;DHT22;43967;51.634;5.566;2023-09-07T13:31:03;25.30;67.70
58153;DHT22;43967;51.634;5.566;2023-09-07T13:36:24;25.30;67.70
58153;DHT22;43967;51.634;5.566;2023-09-07T13:41:46;25.40;67.70
58153;DHT22;43967;51.634;5.566;2023-09-07T13:47:07;25.30;67.70
58153;DHT22;43967;51.634;5.566;2023-09-07T13:52:28;25.40;67.70
58153;DHT22;43967;51.634;5.566;2023-09-07T13:57:49;25.30;67.70
58153;DHT22;43967;51.634;5.566;2023-09-07T14:03:11;25.40;67.80
58153;DHT22;43967;51.634;5.566;2023-09-07T14:08:32;25.40;67.80
58153;DHT22;43967;51.634;5.566;2023-09-07T14:13:53;25.40;67.80
58153;DHT22;43967;51.634;5.566;2023-09-07T14:19:14;25.40;67.80
58153;DHT22;43967;51.634;5.566;2023-09-07T14:24:36;25.40;67.80
58153;DHT22;43967;51.634;5.566;2023-09-07T14:29:57;25.40;67.80
58153;DHT22;43967;51.634;5.566;2023-09-07T14:35:18;25.40;67.80
58153;DHT22;43967;51.634;5.566;2023-09-07T14:40:40;25.40;67.80
58153;DHT22;43967;51.634;5.566;2023-09-07T14:46:01;25.40;67.80
58153;DHT22;43967;51.634;5.566;2023-09-07T14:51:22;25.40;67.80
58153;DHT22;43967;51.634;5.566;2023-09-07T14:56:44;25.40;67.80
58153;DHT22;43967;51.634;5.566;2023-09-07T15:02:05;25.40;67.80
58153;DHT22;43967;51.634;5.566;2023-09-07T15:07:27;25.40;67.80
58153;DHT22;43967;51.634;5.566;2023-09-07T15:12:48;25.50;67.80
58153;DHT22;43967;51.634;5.566;2023-09-07T15:18:10;25.50;67.80
58153;DHT22;43967;51.634;5.566;2023-09-07T15:23:31;25.50;67.80
58153;DHT22;43967;51.634;5.566;2023-09-07T15:28:53;25.50;67.90
58153;DHT22;43967;51.634;5.566;2023-09-07T15:34:14;25.50;67.80
58153;DHT22;43967;51.634;5.566;2023-09-07T15:39:35;25.50;67.80
58153;DHT22;43967;51.634;5.566;2023-09-07T15:44:56;25.50;67.90
58153;DHT22;43967;51.634;5.566;2023-09-07T15:50:18;25.50;67.80
58153;DHT22;43967;51.634;5.566;2023-09-07T15:55:39;25.50;67.80
58153;DHT22;43967;51.634;5.566;2023-09-07T16:01:00;25.50;67.80
58153;DHT22;43967;51.634;5.566;2023-09-07T16:06:22;25.50;68.50
58153;DHT22;43967;51.634;5.566;2023-09-07T16:11:43;25.50;67.80
58153;DHT22;43967;51.634;5.566;2023-09-07T16:17:05;25.50;67.90
58153;DHT22;43967;51.634;5.566;2023-09-07T16:22:27;25.60;67.90
58153;DHT22;43967;51.634;5.566;2023-09-07T16:27:48;25.60;68.00
58153;DHT22;43967;51.634;5.566;2023-09-07T16:33:09;25.60;68.00
58153;DHT22;43967;51.634;5.566;2023-09-07T16:38:31;25.60;68.00
58153;DHT22;43967;51.634;5.566;2023-09-07T16:43:52;25.60;68.00
58153;DHT22;43967;51.634;5.566;2023-09-07T16:49:13;25.60;68.10
58153;DHT22;43967;51.634;5.566;2023-09-07T16:54:36;25.60;68.10
58153;DHT22;43967;51.634;5.566;2023-09-07T16:59:57;25.60;68.20
58153;DHT22;43967;51.634;5.566;2023-09-07T17:05:18;25.60;68.20
58153;DHT22;43967;51.634;5.566;2023-09-07T17:10:41;25.60;68.30
58153;DHT22;43967;51.634;5.566;2023-09-07T17:16:03;25.60;68.30
58153;DHT22;43967;51.634;5.566;2023-09-07T17:21:24;25.60;68.30
58153;DHT22;43967;51.634;5.566;2023-09-07T17:26:45;25.60;68.30
58153;DHT22;43967;51.634;5.566;2023-09-07T17:32:06;25.50;68.30
58153;DHT22;43967;51.634;5.566;2023-09-07T17:37:28;25.60;68.40
58153;DHT22;43967;51.634;5.566;2023-09-07T17:42:49;25.50;68.30
58153;DHT22;43967;51.634;5.566;2023-09-07T17:48:10;25.50;68.40
58153;DHT22;43967;51.634;5.566;2023-09-07T17:53:33;25.50;68.40
58153;DHT22;43967;51.634;5.566;2023-09-07T17:58:55;25.50;68.40
58153;DHT22;43967;51.634;5.566;2023-09-07T18:04:16;25.50;68.40
58153;DHT22;43967;51.634;5.566;2023-09-07T18:09:37;25.50;68.50
58153;DHT22;43967;51.634;5.566;2023-09-07T18:14:58;25.50;68.40
58153;DHT22;43967;51.634;5.566;2023-09-07T18:20:20;25.50;68.40
58153;DHT22;43967;51.634;5.566;2023-09-07T18:25:41;25.50;68.50
58153;DHT22;43967;51.634;5.566;2023-09-07T18:31:10;25.50;68.50
58153;DHT22;43967;51.634;5.566;2023-09-07T18:36:31;25.50;68.50
58153;DHT22;43967;51.634;5.566;2023-09-07T18:41:53;25.50;69.10
58153;DHT22;43967;51.634;5.566;2023-09-07T18:47:14;25.50;68.50
58153;DHT22;43967;51.634;5.566;2023-09-07T18:52:36;25.50;68.50
58153;DHT22;43967;51.634;5.566;2023-09-07T18:57:57;25.50;68.50
58153;DHT22;43967;51.634;5.566;2023-09-07T19:03:18;25.40;68.50
58153;DHT22;43967;51.634;5.566;2023-09-07T19:08:39;25.40;68.50
58153;DHT22;43967;51.634;5.566;2023-09-07T19:14:02;25.40;68.50
58153;DHT22;43967;51.634;5.566;2023-09-07T19:19:24;25.40;68.50
58153;DHT22;43967;51.634;5.566;2023-09-07T19:24:45;25.40;68.60
58153;DHT22;43967;51.634;5.566;2023-09-07T19:30:07;25.40;68.60
58153;DHT22;43967;51.634;5.566;2023-09-07T19:35:28;25.40;68.60
58153;DHT22;43967;51.634;5.566;2023-09-07T19:40:49;25.40;68.70
58153;DHT22;43967;51.634;5.566;2023-09-07T19:46:12;25.40;68.60
58153;DHT22;43967;51.634;5.566;2023-09-07T19:51:34;25.40;68.70
58153;DHT22;43967;51.634;5.566;2023-09-07T19:56:55;25.40;68.70
58153;DHT22;43967;51.634;5.566;2023-09-07T20:02:16;25.40;68.70
58153;DHT22;43967;51.634;5.566;2023-09-07T20:07:38;25.40;68.80
58153;DHT22;43967;51.634;5.566;2023-09-07T20:12:59;25.40;68.80
58153;DHT22;43967;51.634;5.566;2023-09-07T20:18:20;25.40;68.80
58153;DHT22;43967;51.634;5.566;2023-09-07T20:23:42;25.30;68.70
58153;DHT22;43967;51.634;5.566;2023-09-07T20:29:03;25.30;68.80
58153;DHT22;43967;51.634;5.566;2023-09-07T20:34:24;25.30;68.80
58153;DHT22;43967;51.634;5.566;2023-09-07T20:39:46;25.30;69.40
58153;DHT22;43967;51.634;5.566;2023-09-07T20:45:07;25.30;68.80
58153;DHT22;43967;51.634;5.566;2023-09-07T20:50:29;25.30;68.80
58153;DHT22;43967;51.634;5.566;2023-09-07T20:55:50;25.30;68.80
58153;DHT22;43967;51.634;5.566;2023-09-07T21:01:11;25.20;68.80
58153;DHT22;43967;51.634;5.566;2023-09-07T21:06:32;25.20;68.80
58153;DHT22;43967;51.634;5.566;2023-09-07T21:11:54;25.20;68.80
58153;DHT22;43967;51.634;5.566;2023-09-07T21:17:15;25.20;68.80
58153;DHT22;43967;51.634;5.566;2023-09-07T21:22:37;25.20;68.80
58153;DHT22;43967;51.634;5.566;2023-09-07T21:27:58;25.20;68.90
58153;DHT22;43967;51.634;5.566;2023-09-07T21:33:23;25.20;68.80
58153;DHT22;43967;51.634;5.566;2023-09-07T21:38:44;25.20;68.90
58153;DHT22;43967;51.634;5.566;2023-09-07T21:44:05;25.20;68.90
58153;DHT22;43967;51.634;5.566;2023-09-07T21:49:26;25.20;69.00
58153;DHT22;43967;51.634;5.566;2023-09-07T21:54:48;25.20;68.90
58153;DHT22;43967;51.634;5.566;2023-09-07T22:00:09;25.20;68.90
58153;DHT22;43967;51.634;5.566;2023-09-07T22:05:31;25.20;68.90
58153;DHT22;43967;51.634;5.566;2023-09-07T22:10:52;25.20;68.90
58153;DHT22;43967;51.634;5.566;2023-09-07T22:16:13;25.10;68.90
58153;DHT22;43967;51.634;5.566;2023-09-07T22:21:34;25.10;68.90
58153;DHT22;43967;51.634;5.566;2023-09-07T22:26:56;25.10;68.90
58153;DHT22;43967;51.634;5.566;2023-09-07T22:32:17;25.10;68.90
58153;DHT22;43967;51.634;5.566;2023-09-07T22:37:38;25.10;69.00
58153;DHT22;43967;51.634;5.566;2023-09-07T22:43:03;25.10;68.90
58153;DHT22;43967;51.634;5.566;2023-09-07T22:48:24;25.10;68.90
58153;DHT22;43967;51.634;5.566;2023-09-07T22:53:45;25.10;68.90
58153;DHT22;43967;51.634;5.566;2023-09-07T22:59:06;25.10;68.90
58153;DHT22;43967;51.634;5.566;2023-09-07T23:04:28;25.10;69.00
58153;DHT22;43967;51.634;5.566;2023-09-07T23:09:49;25.10;68.90
58153;DHT22;43967;51.634;5.566;2023-09-07T23:15:10;25.00;68.90
58153;DHT22;43967;51.634;5.566;2023-09-07T23:20:32;25.00;68.90
58153;DHT22;43967;51.634;5.566;2023-09-07T23:25:53;25.00;68.90
58153;DHT22;43967;51.634;5.566;2023-09-07T23:31:15;25.00;68.90
58153;DHT22;43967;51.634;5.566;2023-09-07T23:36:36;25.00;69.00
58153;DHT22;43967;51.634;5.566;2023-09-07T23:41:58;25.00;68.90
58153;DHT22;43967;51.634;5.566;2023-09-07T23:47:19;25.00;68.90
58153;DHT22;43967;51.634;5.566;2023-09-07T23:52:40;25.00;68.90
58153;DHT22;43967;51.634;5.566;2023-09-07T23:58:02;25.00;68.90
